createdAt,value
2018-06-27T00:04:52.247Z,3.67
2018-06-27T00:09:46.881Z,3.70
2018-06-27T00:14:41.496Z,5.80
2018-06-27T00:24:26.951Z,4.07
2018-06-27T00:29:21.578Z,4.80
2018-06-27T00:34:16.142Z,5.80
2018-06-27T00:39:11.051Z,4.50
2018-06-27T00:44:05.826Z,3.70
2018-06-27T00:49:00.375Z,4.40
2018-06-27T00:53:59.966Z,6.20
2018-06-27T00:58:54.686Z,3.47
2018-06-27T01:03:49.580Z,5.00
2018-06-27T01:08:44.174Z,5.70
2018-06-27T01:13:38.803Z,4.50
2018-06-27T01:18:33.378Z,6.13
2018-06-27T01:23:27.950Z,5.77
2018-06-27T01:28:22.575Z,6.57
2018-06-27T01:33:17.157Z,6.43
2018-06-27T01:38:11.718Z,4.53
2018-06-27T01:43:06.404Z,4.37
2018-06-27T01:48:00.988Z,4.93
2018-06-27T01:52:55.595Z,7.43
2018-06-27T01:57:50.135Z,5.90
2018-06-27T02:02:44.750Z,5.67
2018-06-27T02:07:39.318Z,5.37
2018-06-27T02:12:33.898Z,4.63
2018-06-27T02:17:28.470Z,5.30
2018-06-27T02:22:23.940Z,6.50
2018-06-27T02:27:18.498Z,6.47
2018-06-27T02:32:13.042Z,5.03
2018-06-27T02:37:07.615Z,4.53
2018-06-27T02:42:02.175Z,4.67
2018-06-27T02:46:56.787Z,5.37
2018-06-27T02:51:51.383Z,7.00
2018-06-27T02:56:46.015Z,6.53
2018-06-27T03:01:40.638Z,5.40
2018-06-27T03:06:35.235Z,5.40
2018-06-27T03:11:29.782Z,7.87
2018-06-27T03:16:24.348Z,7.43
2018-06-27T03:21:19.004Z,6.03
2018-06-27T03:26:13.564Z,6.67
2018-06-27T03:31:08.284Z,4.93
2018-06-27T03:36:02.875Z,7.40
2018-06-27T03:40:57.443Z,6.03
2018-06-27T03:45:52.016Z,4.97
2018-06-27T03:50:46.555Z,5.67
2018-06-27T03:55:41.169Z,6.17
2018-06-27T04:00:35.750Z,6.43
2018-06-27T04:05:30.329Z,7.20
2018-06-27T04:10:24.875Z,5.73
2018-06-27T04:15:19.458Z,6.03
2018-06-27T04:20:14.022Z,6.27
2018-06-27T04:25:08.638Z,6.37
2018-06-27T04:30:03.877Z,5.87
2018-06-27T04:34:59.442Z,7.77
2018-06-27T04:39:54.117Z,6.87
2018-06-27T04:44:48.693Z,5.93
2018-06-27T04:49:43.323Z,5.37
2018-06-27T04:54:37.858Z,6.00
2018-06-27T04:59:32.512Z,7.87
2018-06-27T05:04:27.120Z,8.37
2018-06-27T05:09:21.691Z,6.17
2018-06-27T05:14:16.294Z,6.00
2018-06-27T05:19:10.849Z,4.03
2018-06-27T05:24:05.663Z,6.73
2018-06-27T05:29:00.205Z,4.10
2018-06-27T05:33:54.816Z,4.47
2018-06-27T05:38:49.825Z,6.53
2018-06-27T05:43:44.442Z,3.43
2018-06-27T05:48:39.022Z,3.90
2018-06-27T05:53:33.567Z,8.17
2018-06-27T05:58:28.195Z,5.33
2018-06-27T06:03:22.755Z,6.03
2018-06-27T06:08:17.408Z,4.67
2018-06-27T06:13:12.027Z,4.70
2018-06-27T06:18:06.832Z,5.47
2018-06-27T06:23:01.397Z,5.87
2018-06-27T06:27:55.951Z,6.00
2018-06-27T06:32:50.518Z,5.47
2018-06-27T06:37:45.127Z,4.87
2018-06-27T06:42:39.749Z,5.77
2018-06-27T06:47:34.317Z,4.87
2018-06-27T06:52:28.974Z,4.67
2018-06-27T06:57:23.570Z,6.10
2018-06-27T07:02:18.234Z,5.73
2018-06-27T07:07:12.926Z,5.63
2018-06-27T07:12:07.621Z,4.83
2018-06-27T07:17:02.247Z,4.27
2018-06-27T07:21:56.853Z,5.27
2018-06-27T07:26:51.509Z,4.70
2018-06-27T07:31:46.455Z,10.37
2018-06-27T07:36:41.084Z,5.03
2018-06-27T07:41:35.828Z,4.50
2018-06-27T07:46:30.482Z,5.47
2018-06-27T07:51:25.078Z,12.37
2018-06-27T07:56:19.711Z,4.33
2018-06-27T08:01:14.294Z,4.07
2018-06-27T08:06:08.538Z,5.03
2018-06-27T08:11:03.116Z,4.73
2018-06-27T08:15:57.710Z,4.47
2018-06-27T08:20:52.310Z,3.62
2018-06-27T08:25:52.845Z,3.40
2018-06-27T08:30:47.549Z,4.00
2018-06-27T08:35:42.127Z,3.25
2018-06-27T08:40:36.686Z,3.60
2018-06-27T08:45:31.264Z,3.40
2018-06-27T08:50:25.825Z,8.48
2018-06-27T08:55:20.416Z,3.02
2018-06-27T09:00:15.108Z,3.30
2018-06-27T09:05:09.690Z,3.20
2018-06-27T09:10:04.319Z,3.20
2018-06-27T09:14:58.881Z,3.42
2018-06-27T09:19:53.545Z,4.17
2018-06-27T09:24:48.189Z,2.65
2018-06-27T09:29:42.818Z,3.20
2018-06-27T09:34:37.552Z,2.50
2018-06-27T09:39:32.095Z,2.72
2018-06-27T09:44:26.683Z,2.35
2018-06-27T09:49:21.287Z,2.95
2018-06-27T09:54:15.980Z,4.72
2018-06-27T09:59:10.622Z,2.67
2018-06-27T10:04:05.317Z,2.15
2018-06-27T10:08:59.923Z,2.77
2018-06-27T10:13:54.514Z,2.22
2018-06-27T10:18:49.195Z,2.00
2018-06-27T10:23:43.803Z,1.75
2018-06-27T10:28:38.995Z,1.80
2018-06-27T10:33:33.643Z,1.70
2018-06-27T10:38:28.239Z,2.87
2018-06-27T10:43:22.812Z,1.87
2018-06-27T10:48:17.483Z,2.05
2018-06-27T10:53:12.066Z,2.15
2018-06-27T10:58:06.760Z,1.72
2018-06-27T11:03:01.371Z,1.90
2018-06-27T11:07:55.948Z,1.60
2018-06-27T11:12:50.571Z,1.98
2018-06-27T11:17:45.190Z,1.70
2018-06-27T11:22:39.778Z,2.08
2018-06-27T11:27:34.348Z,2.08
2018-06-27T11:32:28.950Z,3.20
2018-06-27T11:37:23.589Z,2.08
2018-06-27T11:42:18.166Z,1.77
2018-06-27T11:47:12.788Z,3.75
2018-06-27T11:52:07.383Z,3.85
2018-06-27T11:57:01.999Z,2.10
2018-06-27T12:01:56.935Z,2.27
2018-06-27T12:06:51.578Z,1.70
2018-06-27T12:11:46.178Z,1.60
2018-06-27T12:16:40.462Z,1.80
2018-06-27T12:21:35.129Z,3.02
2018-06-27T12:26:29.819Z,1.80
2018-06-27T12:31:24.938Z,2.00
2018-06-27T12:36:19.651Z,1.75
2018-06-27T12:41:14.291Z,2.55
2018-06-27T12:46:08.959Z,4.87
2018-06-27T12:51:03.695Z,4.75
2018-06-27T12:55:58.280Z,4.80
2018-06-27T13:00:52.911Z,3.02
2018-06-27T13:05:47.554Z,2.85
2018-06-27T13:10:42.269Z,1.57
2018-06-27T13:15:36.883Z,1.90
2018-06-27T13:20:31.510Z,1.65
2018-06-27T13:25:26.125Z,1.77
2018-06-27T13:30:20.718Z,2.17
2018-06-27T13:35:15.382Z,2.40
2018-06-27T13:40:10.007Z,1.70
2018-06-27T13:45:04.852Z,1.70
2018-06-27T13:49:59.563Z,1.87
2018-06-27T13:54:57.219Z,2.12
2018-06-27T13:59:51.868Z,2.52
2018-06-27T14:04:46.515Z,2.17
2018-06-27T14:09:41.371Z,2.80
2018-06-27T14:14:36.014Z,4.15
2018-06-27T14:19:30.784Z,5.53
2018-06-27T14:24:25.572Z,2.27
2018-06-27T14:29:20.164Z,2.20
2018-06-27T14:34:14.797Z,3.25
2018-06-27T14:39:10.458Z,2.67
2018-06-27T14:44:05.211Z,2.52
2018-06-27T14:48:59.835Z,1.95
2018-06-27T14:53:54.440Z,2.35
2018-06-27T14:58:49.036Z,4.17
2018-06-27T15:03:43.776Z,2.20
2018-06-27T15:08:38.479Z,4.33
2018-06-27T15:13:33.093Z,2.30
2018-06-27T15:18:27.670Z,2.50
2018-06-27T15:23:22.328Z,4.22
2018-06-27T15:28:16.921Z,2.40
2018-06-27T15:33:11.531Z,3.00
2018-06-27T15:38:06.491Z,3.55
2018-06-27T15:43:01.354Z,2.67
2018-06-27T15:47:56.019Z,3.08
2018-06-27T15:52:50.708Z,2.50
2018-06-27T15:57:45.413Z,1.85
2018-06-27T16:02:40.011Z,2.05
2018-06-27T16:07:34.686Z,1.67
2018-06-27T16:12:29.402Z,1.67
2018-06-27T16:17:24.386Z,1.98
2018-06-27T16:22:18.788Z,2.17
2018-06-27T16:27:13.514Z,1.87
2018-06-27T16:32:08.133Z,1.92
2018-06-27T16:37:02.760Z,1.55
2018-06-27T16:41:57.458Z,2.27
2018-06-27T16:46:52.259Z,2.08
2018-06-27T16:51:46.934Z,1.50
2018-06-27T16:56:41.632Z,2.08
2018-06-27T17:01:36.291Z,2.35
2018-06-27T17:06:30.994Z,1.12
2018-06-27T17:11:25.619Z,1.70
2018-06-27T17:16:20.295Z,1.10
2018-06-27T17:21:15.036Z,1.00
2018-06-27T17:26:09.714Z,2.20
2018-06-27T17:31:04.575Z,3.08
2018-06-27T17:35:59.206Z,2.12
2018-06-27T17:40:53.859Z,1.00
2018-06-27T17:45:48.646Z,1.17
2018-06-27T17:50:43.271Z,1.12
2018-06-27T17:55:37.930Z,0.85
2018-06-27T18:00:32.540Z,1.52
2018-06-27T18:05:27.159Z,1.15
2018-06-27T18:10:21.730Z,1.27
2018-06-27T18:15:16.371Z,0.90
2018-06-27T18:20:10.999Z,1.20
2018-06-27T18:25:06.359Z,2.35
2018-06-27T18:30:00.980Z,1.98
2018-06-27T18:34:55.763Z,1.10
2018-06-27T18:39:50.383Z,1.40
2018-06-27T18:44:44.970Z,1.30
2018-06-27T18:49:40.548Z,1.10
2018-06-27T18:54:35.198Z,1.60
2018-06-27T18:59:29.859Z,1.37
2018-06-27T19:04:24.489Z,1.40
2018-06-27T19:09:19.206Z,1.50
2018-06-27T19:14:13.867Z,1.45
2018-06-27T19:19:08.502Z,1.33
2018-06-27T19:24:03.098Z,3.07
2018-06-27T19:28:57.747Z,1.37
2018-06-27T19:33:52.453Z,1.43
2018-06-27T19:38:47.120Z,2.70
2018-06-27T19:43:41.728Z,3.40
2018-06-27T19:48:36.345Z,1.60
2018-06-27T19:53:31.020Z,1.40
2018-06-27T19:58:25.627Z,1.73
2018-06-27T20:03:20.274Z,1.40
2018-06-27T20:08:15.116Z,1.70
2018-06-27T20:13:09.749Z,1.50
2018-06-27T20:18:04.398Z,1.63
2018-06-27T20:22:59.098Z,2.37
2018-06-27T20:27:53.456Z,1.67
2018-06-27T20:32:48.116Z,3.30
2018-06-27T20:37:42.751Z,2.00
2018-06-27T20:42:37.412Z,1.80
2018-06-27T20:47:32.083Z,3.20
2018-06-27T20:52:26.717Z,1.47
2018-06-27T20:57:21.327Z,1.70
2018-06-27T21:02:16.051Z,2.83
2018-06-27T21:07:10.651Z,1.57
2018-06-27T21:12:05.483Z,1.70
2018-06-27T21:17:00.145Z,1.40
2018-06-27T21:21:54.819Z,1.87
2018-06-27T21:26:49.508Z,1.60
2018-06-27T21:31:44.143Z,3.10
2018-06-27T21:36:38.805Z,1.33
2018-06-27T21:41:33.415Z,1.40
2018-06-27T21:46:28.043Z,1.70
2018-06-27T21:51:22.630Z,1.50
2018-06-27T21:56:17.266Z,1.30
2018-06-27T22:01:11.940Z,2.33
2018-06-27T22:06:06.754Z,4.27
2018-06-27T22:11:01.372Z,2.57
2018-06-27T22:15:56.010Z,1.30
2018-06-27T22:20:50.593Z,2.10
2018-06-27T22:25:45.208Z,1.83
2018-06-27T22:30:40.006Z,3.03
2018-06-27T22:35:34.625Z,1.60
2018-06-27T22:40:29.241Z,1.50
2018-06-27T22:45:23.826Z,2.60
2018-06-27T22:50:18.442Z,1.73
2018-06-27T22:55:13.071Z,1.60
2018-06-27T23:00:08.313Z,1.40
2018-06-27T23:05:02.865Z,1.60
2018-06-27T23:09:57.489Z,2.27
2018-06-27T23:14:52.088Z,2.67
2018-06-27T23:19:46.688Z,1.50
2018-06-27T23:24:41.270Z,1.90
2018-06-27T23:29:35.834Z,1.50
2018-06-27T23:34:30.434Z,1.63
2018-06-27T23:39:25.168Z,1.50
2018-06-27T23:44:19.920Z,1.80
2018-06-27T23:49:14.586Z,2.67
2018-06-27T23:54:09.255Z,1.50
2018-06-27T23:59:03.888Z,1.80
